createdAt,value
2022-12-23T00:01:31.925Z,9.43
2022-12-23T00:03:59.393Z,9.43
2022-12-23T00:06:26.883Z,9.45
2022-12-23T00:08:58.357Z,9.47
2022-12-23T00:11:25.818Z,9.47
2022-12-23T00:14:14.825Z,9.45
2022-12-23T00:16:46.896Z,9.47
2022-12-23T00:19:13.519Z,9.49
2022-12-23T00:21:39.926Z,9.49
2022-12-23T00:24:06.542Z,9.46
2022-12-23T00:26:33.055Z,9.46
2022-12-23T00:29:02.455Z,9.46
2022-12-23T00:31:32.119Z,9.45
2022-12-23T00:33:58.806Z,9.44
2022-12-23T00:36:29.755Z,9.42
2022-12-23T00:39:30.992Z,9.40
2022-12-23T00:42:36.035Z,9.40
2022-12-23T00:45:15.706Z,9.41
2022-12-23T00:48:02.956Z,9.38
2022-12-23T00:50:30.406Z,9.37
2022-12-23T00:52:57.336Z,9.37
2022-12-23T00:55:24.168Z,9.34
2022-12-23T00:57:50.888Z,9.35
2022-12-23T01:00:17.760Z,9.35
2022-12-23T01:03:02.828Z,9.33
2022-12-23T01:05:38.490Z,9.32
2022-12-23T01:08:07.307Z,9.29
2022-12-23T01:10:37.904Z,9.29
2022-12-23T01:13:05.108Z,9.27
2022-12-23T01:15:32.569Z,9.27
2022-12-23T01:17:59.279Z,9.28
2022-12-23T01:20:25.789Z,9.28
2022-12-23T01:22:52.330Z,9.27
2022-12-23T01:25:24.756Z,9.26
2022-12-23T01:27:51.370Z,9.26
2022-12-23T01:30:17.911Z,9.25
2022-12-23T01:32:44.410Z,9.26
2022-12-23T01:35:10.889Z,9.24
2022-12-23T01:37:37.579Z,9.25
2022-12-23T01:40:04.500Z,9.25
2022-12-23T01:42:46.788Z,9.24
2022-12-23T01:45:32.060Z,9.24
2022-12-23T01:48:11.574Z,9.24
2022-12-23T01:50:43.400Z,9.24
2022-12-23T01:53:15.285Z,9.26
2022-12-23T01:55:55.695Z,9.26
2022-12-23T01:58:46.983Z,9.27
2022-12-23T02:01:32.705Z,9.26
2022-12-23T02:04:03.993Z,9.24
2022-12-23T02:06:55.497Z,9.24
2022-12-23T02:09:33.290Z,9.24
2022-12-23T02:12:24.343Z,9.23
2022-12-23T02:15:18.468Z,9.22
2022-12-23T02:18:09.823Z,9.21
2022-12-23T02:20:57.622Z,9.20
2022-12-23T02:24:03.964Z,9.20
2022-12-23T02:26:51.630Z,9.19
2022-12-23T02:29:38.354Z,9.18
2022-12-23T02:32:26.199Z,9.17
2022-12-23T02:34:54.237Z,9.14
2022-12-23T02:37:28.496Z,9.11
2022-12-23T02:40:36.751Z,9.10
2022-12-23T02:43:15.936Z,9.08
2022-12-23T02:45:59.820Z,9.07
2022-12-23T02:48:41.883Z,9.05
2022-12-23T02:51:12.661Z,9.03
2022-12-23T02:53:45.725Z,9.02
2022-12-23T02:56:14.715Z,9.00
2022-12-23T02:59:05.465Z,8.94
2022-12-23T03:01:33.775Z,8.92
2022-12-23T03:04:00.505Z,8.90
2022-12-23T03:06:32.108Z,8.90
2022-12-23T03:08:59.845Z,8.89
2022-12-23T03:11:40.071Z,8.89
2022-12-23T03:14:25.525Z,8.84
2022-12-23T03:16:57.886Z,8.81
2022-12-23T03:19:37.789Z,8.76
2022-12-23T03:22:16.421Z,8.74
2022-12-23T03:24:51.929Z,8.73
2022-12-23T03:27:18.388Z,8.71
2022-12-23T03:30:11.818Z,8.72
2022-12-23T03:32:49.740Z,8.72
2022-12-23T03:35:20.135Z,8.73
2022-12-23T03:37:50.615Z,8.74
2022-12-23T03:40:22.983Z,8.73
2022-12-23T03:42:55.027Z,8.72
2022-12-23T03:45:42.168Z,8.70
2022-12-23T03:48:16.302Z,8.69
2022-12-23T03:50:43.959Z,8.65
2022-12-23T03:53:17.494Z,8.62
2022-12-23T03:55:50.597Z,8.61
2022-12-23T03:58:28.091Z,8.59
2022-12-23T04:01:18.328Z,8.54
2022-12-23T04:04:13.671Z,8.52
2022-12-23T04:06:50.528Z,8.49
2022-12-23T04:09:22.223Z,8.50
2022-12-23T04:11:49.642Z,8.48
2022-12-23T04:14:20.598Z,8.49
2022-12-23T04:16:49.626Z,8.48
2022-12-23T04:19:16.374Z,8.47
2022-12-23T04:21:42.835Z,8.46
2022-12-23T04:24:09.412Z,8.47
2022-12-23T04:26:35.927Z,8.46
2022-12-23T04:29:02.579Z,8.46
2022-12-23T04:31:29.176Z,8.49
2022-12-23T04:33:55.640Z,8.49
2022-12-23T04:36:22.094Z,8.49
2022-12-23T04:38:48.752Z,8.48
2022-12-23T04:41:15.242Z,8.48
2022-12-23T04:43:41.705Z,8.49
2022-12-23T04:46:08.221Z,8.49
2022-12-23T04:48:35.698Z,8.52
2022-12-23T04:51:03.144Z,8.52
2022-12-23T04:53:29.708Z,8.53
2022-12-23T04:55:56.163Z,8.54
2022-12-23T04:58:25.062Z,8.55
2022-12-23T05:01:04.919Z,8.55
2022-12-23T05:03:31.783Z,8.56
2022-12-23T05:05:58.352Z,8.55
2022-12-23T05:08:25.025Z,8.54
2022-12-23T05:10:51.651Z,8.55
2022-12-23T05:13:18.097Z,8.54
2022-12-23T05:15:45.941Z,8.56
2022-12-23T05:18:12.591Z,8.57
2022-12-23T05:20:38.984Z,8.56
2022-12-23T05:23:05.407Z,8.57
2022-12-23T05:25:36.636Z,8.56
2022-12-23T05:28:04.341Z,8.53
2022-12-23T05:30:30.886Z,8.52
2022-12-23T05:32:57.536Z,8.51
2022-12-23T05:35:25.959Z,8.52
2022-12-23T05:37:53.282Z,8.53
2022-12-23T05:40:23.443Z,8.53
2022-12-23T05:42:53.753Z,8.53
2022-12-23T05:45:20.794Z,8.52
2022-12-23T05:47:47.395Z,8.47
2022-12-23T05:50:14.082Z,8.48
2022-12-23T05:52:40.606Z,8.46
2022-12-23T05:55:07.749Z,8.44
2022-12-23T05:57:34.265Z,8.45
2022-12-23T06:00:00.710Z,8.43
2022-12-23T06:02:27.342Z,8.43
2022-12-23T06:04:56.674Z,8.43
2022-12-23T06:07:23.188Z,8.42
2022-12-23T06:09:49.649Z,8.43
2022-12-23T06:12:16.339Z,8.46
2022-12-23T06:14:42.887Z,8.45
2022-12-23T06:17:09.492Z,8.48
2022-12-23T06:19:36.165Z,8.49
2022-12-23T06:22:02.574Z,8.49
2022-12-23T06:24:30.316Z,8.49
2022-12-23T06:26:57.599Z,8.49
2022-12-23T06:29:24.957Z,8.49
2022-12-23T06:31:51.563Z,8.50
2022-12-23T06:34:18.191Z,8.49
2022-12-23T06:36:44.721Z,8.53
2022-12-23T06:39:11.437Z,8.54
2022-12-23T06:41:37.844Z,8.55
2022-12-23T06:44:04.508Z,8.55
2022-12-23T06:46:31.204Z,8.54
2022-12-23T06:49:00.962Z,8.53
2022-12-23T06:51:27.540Z,8.53
2022-12-23T06:53:56.274Z,8.56
2022-12-23T06:56:22.660Z,8.57
2022-12-23T06:58:49.170Z,8.56
2022-12-23T07:01:15.713Z,8.58
2022-12-23T07:03:42.248Z,8.57
2022-12-23T07:06:12.074Z,8.59
2022-12-23T07:08:38.567Z,8.60
2022-12-23T07:11:05.538Z,8.60
2022-12-23T07:13:33.078Z,8.60
2022-12-23T07:16:05.593Z,8.58
2022-12-23T07:18:32.200Z,8.59
2022-12-23T07:21:04.815Z,8.59
2022-12-23T07:23:31.544Z,8.58
2022-12-23T07:25:58.009Z,8.57
2022-12-23T07:28:24.661Z,8.57
2022-12-23T07:30:51.282Z,8.55
2022-12-23T07:33:17.714Z,8.54
2022-12-23T07:35:46.214Z,8.53
2022-12-23T07:38:12.843Z,8.55
2022-12-23T07:40:39.295Z,8.55
2022-12-23T07:43:05.878Z,8.57
2022-12-23T07:45:32.404Z,8.57
2022-12-23T07:48:00.825Z,8.57
2022-12-23T07:50:28.220Z,8.58
2022-12-23T07:52:55.580Z,8.56
2022-12-23T07:55:22.457Z,8.55
2022-12-23T07:57:50.330Z,8.54
2022-12-23T08:00:18.197Z,8.54
2022-12-23T08:02:45.054Z,8.54
2022-12-23T08:05:13.613Z,8.53
2022-12-23T08:07:41.061Z,8.52
2022-12-23T08:10:08.737Z,8.48
2022-12-23T08:12:35.158Z,8.48
2022-12-23T08:15:01.596Z,8.49
2022-12-23T08:17:31.187Z,8.49
2022-12-23T08:19:57.712Z,8.50
2022-12-23T08:22:24.495Z,8.48
2022-12-23T08:24:52.417Z,8.48
2022-12-23T08:27:18.934Z,8.48
2022-12-23T08:29:45.578Z,8.46
2022-12-23T08:32:12.235Z,8.46
2022-12-23T08:34:38.822Z,8.48
2022-12-23T08:37:05.278Z,8.49
2022-12-23T08:39:31.906Z,8.53
2022-12-23T08:41:58.512Z,8.52
2022-12-23T08:44:27.864Z,8.54
2022-12-23T08:46:55.296Z,8.52
2022-12-23T08:49:22.349Z,8.50
2022-12-23T08:51:49.668Z,8.52
2022-12-23T08:54:17.476Z,8.50
2022-12-23T08:56:43.977Z,8.53
2022-12-23T08:59:19.129Z,8.54
2022-12-23T09:01:46.848Z,8.54
2022-12-23T09:04:13.619Z,8.54
2022-12-23T09:06:42.529Z,8.53
2022-12-23T09:09:11.605Z,8.50
2022-12-23T09:11:38.441Z,8.53
2022-12-23T09:14:05.907Z,8.53
2022-12-23T09:16:32.676Z,8.53
2022-12-23T09:18:59.504Z,8.52
2022-12-23T09:21:26.368Z,8.53
2022-12-23T09:23:53.080Z,8.53
2022-12-23T09:26:25.111Z,8.53
2022-12-23T09:28:52.242Z,8.55
2022-12-23T09:31:19.428Z,8.58
2022-12-23T09:33:52.670Z,8.60
2022-12-23T09:36:20.345Z,8.59
2022-12-23T09:38:46.963Z,8.58
2022-12-23T09:41:36.970Z,8.57
2022-12-23T09:44:23.684Z,8.56
2022-12-23T09:47:01.047Z,8.58
2022-12-23T09:49:27.844Z,8.61
2022-12-23T09:52:00.240Z,8.62
2022-12-23T09:54:29.426Z,8.61
2022-12-23T09:57:05.411Z,8.61
2022-12-23T09:59:51.101Z,8.61
2022-12-23T10:02:45.184Z,8.65
2022-12-23T10:05:29.107Z,8.68
2022-12-23T10:08:15.277Z,8.68
2022-12-23T10:10:49.991Z,8.72
2022-12-23T10:13:29.718Z,8.72
2022-12-23T10:16:03.325Z,8.73
2022-12-23T10:18:53.307Z,8.75
2022-12-23T10:21:57.930Z,8.74
2022-12-23T10:24:26.750Z,8.76
2022-12-23T10:27:04.499Z,8.77
2022-12-23T10:29:33.092Z,8.80
2022-12-23T10:32:11.744Z,8.81
2022-12-23T10:34:44.412Z,8.84
2022-12-23T10:37:24.554Z,8.84
2022-12-23T10:40:02.947Z,8.86
2022-12-23T10:42:38.209Z,8.87
2022-12-23T10:45:07.489Z,8.89
2022-12-23T10:47:42.763Z,8.88
2022-12-23T10:50:27.916Z,8.91
2022-12-23T10:52:58.920Z,8.89
2022-12-23T10:55:33.729Z,8.89
2022-12-23T10:58:08.875Z,8.89
2022-12-23T11:00:40.036Z,8.90
2022-12-23T11:03:20.886Z,8.90
2022-12-23T11:05:50.893Z,8.91
2022-12-23T11:08:18.370Z,8.93
2022-12-23T11:10:45.116Z,8.93
2022-12-23T11:13:23.855Z,8.93
2022-12-23T11:15:50.345Z,8.95
2022-12-23T11:18:19.518Z,8.95
2022-12-23T11:21:02.362Z,8.94
2022-12-23T11:23:31.938Z,8.96
2022-12-23T11:26:07.545Z,8.96
2022-12-23T11:28:46.521Z,8.96
2022-12-23T11:31:14.600Z,8.97
2022-12-23T11:33:48.887Z,8.96
2022-12-23T11:36:24.930Z,8.98
2022-12-23T11:39:04.607Z,8.99
2022-12-23T11:41:38.813Z,8.99
2022-12-23T11:44:17.263Z,8.99
2022-12-23T11:46:43.674Z,9.00
2022-12-23T11:49:19.415Z,9.01
2022-12-23T11:51:49.174Z,9.00
2022-12-23T11:54:18.563Z,9.00
2022-12-23T11:56:47.646Z,9.03
2022-12-23T11:59:34.008Z,9.03
2022-12-23T12:02:05.586Z,9.00
2022-12-23T12:04:35.378Z,9.03
2022-12-23T12:07:04.187Z,9.02
2022-12-23T12:09:32.345Z,9.02
2022-12-23T12:12:05.711Z,9.02
2022-12-23T12:14:44.983Z,9.02
2022-12-23T12:17:33.481Z,9.01
2022-12-23T12:20:10.811Z,9.02
2022-12-23T12:22:41.418Z,9.01
2022-12-23T12:25:51.566Z,9.00
2022-12-23T12:28:22.878Z,9.00
2022-12-23T12:31:00.548Z,8.99
2022-12-23T12:33:44.872Z,8.98
2022-12-23T12:36:32.923Z,8.98
2022-12-23T12:39:01.212Z,8.97
2022-12-23T12:41:37.097Z,8.99
2022-12-23T12:44:27.859Z,8.98
2022-12-23T12:47:36.329Z,8.98
2022-12-23T12:50:04.805Z,8.99
2022-12-23T12:52:39.015Z,8.98
2022-12-23T12:55:25.832Z,8.98
2022-12-23T12:57:52.489Z,8.97
2022-12-23T13:00:23.061Z,8.97
2022-12-23T13:03:10.992Z,8.97
2022-12-23T13:05:53.311Z,8.97
2022-12-23T13:08:41.197Z,8.98
2022-12-23T13:11:24.908Z,8.98
2022-12-23T13:14:33.935Z,9.00
2022-12-23T13:17:08.519Z,9.00
2022-12-23T13:19:56.207Z,9.01
2022-12-23T13:22:28.608Z,9.02
2022-12-23T13:25:10.072Z,9.02
2022-12-23T13:28:02.493Z,9.00
2022-12-23T13:30:35.604Z,9.01
2022-12-23T13:33:15.557Z,9.00
2022-12-23T13:36:31.369Z,9.00
2022-12-23T13:39:00.530Z,8.99
2022-12-23T13:41:34.808Z,8.99
2022-12-23T13:44:05.387Z,9.00
2022-12-23T13:46:38.550Z,9.02
2022-12-23T13:49:11.376Z,9.03
2022-12-23T13:51:37.761Z,9.03
2022-12-23T13:54:27.607Z,9.04
2022-12-23T13:57:08.557Z,9.03
2022-12-23T13:59:43.861Z,9.03
2022-12-23T14:02:35.080Z,9.02
2022-12-23T14:05:03.339Z,9.02
2022-12-23T14:07:33.329Z,9.03
2022-12-23T14:10:11.221Z,8.99
2022-12-23T14:12:40.568Z,8.99
2022-12-23T14:15:31.968Z,9.01
2022-12-23T14:18:15.968Z,9.06
2022-12-23T14:20:50.731Z,9.08
2022-12-23T14:23:25.175Z,9.12
2022-12-23T14:26:09.332Z,9.13
2022-12-23T14:28:54.126Z,9.15
2022-12-23T14:31:45.303Z,9.15
2022-12-23T14:34:17.722Z,9.13
2022-12-23T14:37:21.166Z,9.10
2022-12-23T14:39:49.332Z,9.08
2022-12-23T14:42:41.527Z,9.06
2022-12-23T14:45:41.457Z,9.09
2022-12-23T14:48:37.165Z,9.09
2022-12-23T14:51:09.671Z,9.09
2022-12-23T14:53:57.124Z,9.09
2022-12-23T14:56:38.868Z,9.10
2022-12-23T14:59:34.807Z,9.11
2022-12-23T15:02:01.140Z,9.10
2022-12-23T15:04:44.199Z,9.09
2022-12-23T15:07:22.304Z,9.08
2022-12-23T15:10:00.531Z,9.07
2022-12-23T15:12:31.711Z,9.06
2022-12-23T15:15:02.426Z,9.04
2022-12-23T15:17:34.851Z,9.04
2022-12-23T15:20:10.502Z,9.05
2022-12-23T15:22:41.221Z,9.04
2022-12-23T15:25:26.742Z,9.02
2022-12-23T15:28:01.236Z,9.00
2022-12-23T15:30:34.425Z,9.02
2022-12-23T15:33:11.876Z,9.00
2022-12-23T15:35:48.465Z,8.99
2022-12-23T15:38:16.917Z,8.98
2022-12-23T15:40:43.856Z,8.97
2022-12-23T15:43:24.853Z,8.97
2022-12-23T15:45:52.590Z,8.96
2022-12-23T15:48:29.047Z,8.93
2022-12-23T15:51:01.251Z,8.93
2022-12-23T15:53:34.837Z,8.92
2022-12-23T15:56:26.075Z,8.90
2022-12-23T15:58:54.446Z,8.93
2022-12-23T16:01:22.398Z,8.93
2022-12-23T16:04:02.544Z,8.92
2022-12-23T16:06:32.986Z,8.92
2022-12-23T16:09:25.533Z,8.93
2022-12-23T16:12:00.392Z,8.92
2022-12-23T16:14:39.744Z,8.93
2022-12-23T16:17:08.949Z,8.93
2022-12-23T16:19:47.562Z,8.93
2022-12-23T16:22:24.948Z,8.94
2022-12-23T16:25:17.158Z,8.94
2022-12-23T16:27:48.801Z,8.93
2022-12-23T16:30:25.798Z,8.94
2022-12-23T16:32:58.351Z,8.93
2022-12-23T16:35:30.695Z,8.90
2022-12-23T16:38:08.656Z,8.90
2022-12-23T16:40:35.136Z,8.90
2022-12-23T16:43:01.747Z,8.89
2022-12-23T16:45:28.292Z,8.89
2022-12-23T16:47:57.156Z,8.89
2022-12-23T16:50:24.002Z,8.89
2022-12-23T16:52:50.497Z,8.89
2022-12-23T16:55:19.958Z,8.89
2022-12-23T16:57:46.728Z,8.90
2022-12-23T17:00:16.033Z,8.91
2022-12-23T17:02:47.719Z,8.92
2022-12-23T17:05:19.488Z,8.92
2022-12-23T17:07:46.177Z,8.93
2022-12-23T17:10:14.863Z,8.94
2022-12-23T17:12:43.404Z,8.94
2022-12-23T17:15:22.905Z,8.94
2022-12-23T17:17:50.692Z,8.96
2022-12-23T17:20:19.127Z,8.94
2022-12-23T17:22:47.805Z,8.92
2022-12-23T17:25:21.307Z,8.91
2022-12-23T17:27:55.639Z,8.91
2022-12-23T17:30:25.223Z,8.93
2022-12-23T17:32:55.909Z,8.95
2022-12-23T17:35:23.783Z,8.94
2022-12-23T17:37:51.038Z,8.94
2022-12-23T17:40:18.331Z,8.97
2022-12-23T17:42:45.402Z,9.02
2022-12-23T17:45:27.633Z,9.08
2022-12-23T17:47:54.710Z,9.11
2022-12-23T17:50:22.057Z,9.13
2022-12-23T17:52:48.923Z,9.16
2022-12-23T17:55:22.280Z,9.23
2022-12-23T17:57:48.876Z,9.28
2022-12-23T18:00:25.132Z,9.32
2022-12-23T18:03:12.980Z,9.38
2022-12-23T18:05:39.560Z,9.44
2022-12-23T18:08:06.114Z,9.48
2022-12-23T18:10:39.438Z,9.55
2022-12-23T18:13:08.096Z,9.58
2022-12-23T18:15:40.450Z,9.66
2022-12-23T18:18:31.243Z,9.69
2022-12-23T18:21:05.401Z,9.75
2022-12-23T18:23:34.207Z,9.78
2022-12-23T18:26:01.055Z,9.81
2022-12-23T18:28:27.638Z,9.82
2022-12-23T18:30:57.687Z,9.87
2022-12-23T18:33:28.476Z,9.89
2022-12-23T18:35:54.996Z,9.90
2022-12-23T18:38:21.594Z,9.92
2022-12-23T18:40:52.008Z,9.94
2022-12-23T18:43:22.084Z,9.94
2022-12-23T18:45:53.333Z,9.97
2022-12-23T18:48:21.420Z,9.96
2022-12-23T18:50:48.135Z,9.99
2022-12-23T18:53:23.726Z,10.00
2022-12-23T18:55:51.424Z,10.00
2022-12-23T18:58:18.276Z,10.01
2022-12-23T19:00:45.408Z,10.02
2022-12-23T19:03:30.307Z,10.02
2022-12-23T19:05:58.339Z,10.01
2022-12-23T19:08:27.914Z,9.98
2022-12-23T19:10:55.652Z,9.98
2022-12-23T19:13:22.513Z,9.99
2022-12-23T19:15:49.280Z,9.97
2022-12-23T19:18:21.279Z,9.97
2022-12-23T19:20:48.792Z,9.97
2022-12-23T19:23:16.282Z,9.97
2022-12-23T19:25:54.590Z,9.99
2022-12-23T19:28:22.598Z,10.00
2022-12-23T19:30:49.548Z,9.98
2022-12-23T19:33:16.293Z,9.98
2022-12-23T19:35:43.472Z,9.98
2022-12-23T19:38:10.215Z,9.98
2022-12-23T19:40:36.786Z,9.98
2022-12-23T19:43:03.545Z,9.98
2022-12-23T19:45:30.028Z,9.97
2022-12-23T19:47:56.588Z,9.99
2022-12-23T19:50:22.996Z,10.00
2022-12-23T19:52:50.699Z,10.01
2022-12-23T19:55:17.336Z,10.00
2022-12-23T19:57:43.945Z,10.03
2022-12-23T20:00:11.066Z,10.02
2022-12-23T20:02:37.580Z,10.04
2022-12-23T20:05:04.366Z,10.08
2022-12-23T20:07:30.909Z,10.06
2022-12-23T20:09:57.368Z,10.05
2022-12-23T20:12:25.363Z,10.03
2022-12-23T20:14:51.850Z,10.05
2022-12-23T20:17:18.322Z,10.03
2022-12-23T20:19:46.375Z,10.02
2022-12-23T20:22:13.095Z,10.02
2022-12-23T20:24:39.561Z,10.04
2022-12-23T20:27:10.948Z,10.03
2022-12-23T20:29:38.219Z,10.04
2022-12-23T20:32:04.865Z,10.05
2022-12-23T20:34:38.427Z,10.08
2022-12-23T20:37:06.439Z,10.05
2022-12-23T20:39:33.104Z,10.05
2022-12-23T20:41:59.554Z,10.05
2022-12-23T20:44:35.600Z,10.06
2022-12-23T20:47:03.237Z,10.07
2022-12-23T20:49:30.803Z,10.08
2022-12-23T20:51:57.403Z,10.08
2022-12-23T20:54:31.610Z,10.08
2022-12-23T20:56:59.609Z,10.09
2022-12-23T20:59:26.101Z,10.10
2022-12-23T21:01:52.644Z,10.10
2022-12-23T21:04:19.113Z,10.15
2022-12-23T21:06:45.682Z,10.14
2022-12-23T21:09:13.971Z,10.15
2022-12-23T21:11:44.640Z,10.15
2022-12-23T21:14:11.823Z,10.14
2022-12-23T21:16:38.497Z,10.12
2022-12-23T21:19:13.132Z,10.14
2022-12-23T21:21:39.596Z,10.15
2022-12-23T21:24:06.448Z,10.15
2022-12-23T21:26:34.476Z,10.18
2022-12-23T21:29:03.806Z,10.15
2022-12-23T21:31:31.922Z,10.15
2022-12-23T21:33:58.906Z,10.16
2022-12-23T21:36:28.168Z,10.17
2022-12-23T21:38:54.760Z,10.17
2022-12-23T21:41:35.290Z,10.15
2022-12-23T21:44:02.725Z,10.12
2022-12-23T21:46:29.834Z,10.13
2022-12-23T21:48:58.303Z,10.10
2022-12-23T21:51:26.149Z,10.08
2022-12-23T21:53:54.703Z,10.10
2022-12-23T21:56:26.859Z,10.11
2022-12-23T21:58:58.584Z,10.09
2022-12-23T22:01:25.997Z,10.08
2022-12-23T22:03:53.856Z,10.07
2022-12-23T22:06:31.851Z,10.06
2022-12-23T22:08:58.447Z,10.02
2022-12-23T22:11:30.889Z,9.96
2022-12-23T22:13:59.404Z,9.87
2022-12-23T22:16:28.834Z,9.79
2022-12-23T22:18:57.940Z,9.73
2022-12-23T22:21:26.201Z,9.66
2022-12-23T22:23:53.885Z,9.62
2022-12-23T22:26:25.701Z,9.59
2022-12-23T22:28:56.508Z,9.57
2022-12-23T22:31:27.425Z,9.57
2022-12-23T22:33:53.876Z,9.57
2022-12-23T22:36:20.307Z,9.58
2022-12-23T22:38:53.029Z,9.58
2022-12-23T22:41:19.805Z,9.59
2022-12-23T22:43:46.317Z,9.59
2022-12-23T22:46:13.361Z,9.60
2022-12-23T22:48:40.040Z,9.61
2022-12-23T22:51:11.053Z,9.60
2022-12-23T22:53:37.495Z,9.57
2022-12-23T22:56:05.247Z,9.56
2022-12-23T22:58:34.295Z,9.57
2022-12-23T23:01:01.049Z,9.57
2022-12-23T23:03:28.505Z,9.59
2022-12-23T23:06:07.090Z,9.59
2022-12-23T23:08:34.773Z,9.62
2022-12-23T23:11:04.497Z,9.64
2022-12-23T23:13:34.003Z,9.63
2022-12-23T23:16:01.480Z,9.63
2022-12-23T23:18:29.506Z,9.64
2022-12-23T23:20:55.938Z,9.63
2022-12-23T23:23:23.784Z,9.64
2022-12-23T23:25:50.319Z,9.63
2022-12-23T23:28:17.142Z,9.64
2022-12-23T23:30:43.979Z,9.63
2022-12-23T23:33:11.040Z,9.63
2022-12-23T23:35:37.883Z,9.63
2022-12-23T23:38:04.689Z,9.64
2022-12-23T23:40:31.379Z,9.62
2022-12-23T23:42:57.826Z,9.62
2022-12-23T23:45:24.371Z,9.63
2022-12-23T23:47:51.004Z,9.66
2022-12-23T23:50:17.557Z,9.65
2022-12-23T23:52:44.133Z,9.65
2022-12-23T23:55:10.744Z,9.69
2022-12-23T23:57:37.367Z,9.64
